Дата Пункты Температура Давл., мм. Влажн., % Ветер Погодные явления
Воздуха Воды Направл. Скорость
10.05.19 12:00 Одесса 14.0 12.0 755 81 Пд-С 5 12 ГОДИН
10.05.19 09:00 Одесса 13.0 12.0 755 82 Пд 4 09 ГОДИН
10.05.19 06:00 Одесса 12.0 13.0 754 90 Пд 3 06 ГОДИН
10.05.19 03:00 Одесса 11.0 13.0 754 83 Пд-З 2 03 ГОДИНИ
09.05.19 09:00 Одесса 11.0 13.0 754 84 Пд-З 2 21 ГОДИНУ
09.05.19 06:00 Одесса 13.0 14.0 754 78 Пд 4 18 ГОДИН
09.05.19 03:00 Одесса 14.0 14.0 754 71 Пд 3 15 ГОДИН
09.05.19 12:00 Одесса 15.0 13.0 755 64 Пн-З 2 12 ГОДИН
09.05.19 09:00 Одесса 13.0 13.0 755 71 Пн 2 09 ГОДИН
09.05.19 06:00 Одесса 9.0 13.0 755 84 Пн-З 3 06 ГОДИН
09.05.19 03:00 Одесса 10.0 13.0 756 82 Пн-З 3 03 ГОДИНИ
08.05.19 09:00 Одесса 11.0 13.0 756 84 З 1 21 ГОДИНУ
08.05.19 06:00 Одесса 11.0 13.0 755 78 Пд 3 18 ГОДИН
08.05.19 03:00 Одесса 12.0 13.0 755 76 Пд 3 15 ГОДИН
08.05.19 12:00 Одесса 10.0 13.0 755 78 С 1 12 ГОДИН
08.05.19 09:00 Одесса 9.0 13.0 754 80 З 1 09 ГОДИН
08.05.19 06:00 Одесса 8.0 13.0 754 83 Пн 0 06 ГОДИН
08.05.19 03:00 Одесса 6.0 13.0 753 87 З 1 03 ГОДИНИ
07.05.19 09:00 Одесса 12.0 13.0 752 80 Пн-З 2 21 ГОДИНУ
07.05.19 06:00 Одесса 14.0 13.0 751 84 Пд 3 18 ГОДИН
Количество строк
1 2 3 4 5 6 7 8 9 10
Page 5 of 491